KAMG

Bacon County Airport

Alma, Georgia, USA
METAR KAMG 230753Z AUTO 18003KT 10SM CLR 22/20 A3006 RMK AO2 SLP177 T02170200
Observed Flight Rules
May-23 @ 07:53 UTC (46 minutes ago) Visual Flight Rules
Wind Visibility Clouds
180° at 3 knots 10 miles
  • Clear skies
Temperatures Readings
Current 22°C / 72°F
Dewpoint 20°C / 68°F
Humidity 88%
Altimeter 30.06" Hg
Pressure 1017.7 hPa
Elevation 59
METAR KAMG 230753Z AUTO 18003KT 10SM CLR 22/20 A3006 RMK AO2 SLP177 T02170200
Observed Flight Rules
May-23 @ 07:53 UTC
(46 minutes ago)
VFR
Wind Visibility
180° at 3 knots 10 miles
Clouds
  • Clear skies
Temperature Dewpoint
22°C / 72°F 20°C / 68°F
Humidity Altimeter Pressure
88% 30.06" Hg 1017.7 hPa